Time;durP1;ratioP1;P1;durP2;ratioP2;P2;SDS_P1;SDS_P2;PMS_P1;PMS_P2;Temp;Humidity;BMP_temperature;BMP_pressure;BME280_temperature;BME280_humidity;BME280_pressure;Samples;Min_cycle;Max_cycle;Signal;HPM_P1;HPM_P2
2024/03/05 00:01:49;;;;;;;4.25;2.35;;;;;;;;;;5064342;28;20029;-78
2024/03/05 00:04:15;;;;;;;9.38;4.10;;;5.20;99.90;;;;;;5044541;28;20413;-78
2024/03/05 00:06:41;;;;;;;9.20;2.72;;;5.10;99.90;;;;;;5067804;28;20374;-78
2024/03/05 00:09:07;;;;;;;5.40;3.15;;;;;;;;;;5080625;28;20104;-78
2024/03/05 00:11:33;;;;;;;6.55;3.03;;;;;;;;;;5067324;28;20024;-78
2024/03/05 00:13:59;;;;;;;5.80;3.35;;;;;;;;;;5074280;28;20059;-78
2024/03/05 00:16:25;;;;;;;9.80;2.80;;;;;;;;;;5079595;28;20509;-78
2024/03/05 00:18:51;;;;;;;5.65;4.22;;;;;;;;;;5072011;28;20107;-78
2024/03/05 00:21:17;;;;;;;6.13;3.22;;;;;;;;;;5071239;28;20048;-78
2024/03/05 00:23:43;;;;;;;8.30;3.17;;;;;;;;;;5071266;28;20350;-78
2024/03/05 00:26:14;;;;;;;8.90;3.20;;;5.00;99.90;;;;;;5071341;28;20105;-77
2024/03/05 00:28:40;;;;;;;16.00;3.03;;;;;;;;;;5068620;28;20036;-78
2024/03/05 00:31:06;;;;;;;11.75;2.60;;;;;;;;;;5076378;28;20403;-78
2024/03/05 00:33:32;;;;;;;4.00;3.05;;;;;;;;;;5056866;28;20021;-78
2024/03/05 00:35:58;;;;;;;6.53;1.95;;;;;;;;;;5076214;28;20028;-78
2024/03/05 00:38:24;;;;;;;4.78;2.50;;;;;;;;;;5055811;28;20029;-78
2024/03/05 00:40:51;;;;;;;3.85;2.53;;;;;;;;;;5070475;28;20499;-78
2024/03/05 00:43:17;;;;;;;2.40;2.20;;;;;;;;;;5064953;28;20558;-78
2024/03/05 00:45:43;;;;;;;3.17;1.73;;;;;;;;;;5073711;28;20266;-78
2024/03/05 00:48:09;;;;;;;5.07;2.72;;;;;;;;;;5071004;28;20036;-77
2024/03/05 00:50:35;;;;;;;2.67;1.85;;;;;;;;;;5070276;28;20081;-78
2024/03/05 00:53:01;;;;;;;3.05;2.30;;;;;;;;;;5070741;28;20027;-78
2024/03/05 00:55:28;;;;;;;2.67;2.22;;;;;;;;;;5073427;28;20476;-78
2024/03/05 00:57:55;;;;;;;1.77;1.35;;;;;;;;;;5060977;28;20035;-78
2024/03/05 01:00:23;;;;;;;1.87;1.53;;;;;;;;;;5063119;28;20481;-77
2024/03/05 01:02:49;;;;;;;3.25;1.90;;;;;;;;;;5066990;28;20488;-78
2024/03/05 01:05:16;;;;;;;2.22;2.03;;;;;;;;;;5071924;28;20029;-78
2024/03/05 01:07:42;;;;;;;2.20;1.83;;;;;;;;;;5071342;28;20039;-78
2024/03/05 01:10:09;;;;;;;2.13;1.35;;;;;;;;;;5047877;28;20035;-78
2024/03/05 01:12:35;;;;;;;1.38;1.27;;;;;;;;;;5066954;28;20017;-78
2024/03/05 01:15:01;;;;;;;2.25;1.30;;;;;;;;;;5071248;28;20090;-77
2024/03/05 01:17:27;;;;;;;3.05;1.98;;;;;;;;;;5070687;28;20023;-77
2024/03/05 01:19:53;;;;;;;2.30;1.33;;;5.30;98.50;;;;;;5070768;28;20028;-78
2024/03/05 01:22:19;;;;;;;6.85;2.00;;;;;;;;;;5070921;28;20059;-78
2024/03/05 01:24:45;;;;;;;3.92;1.98;;;4.90;99.90;;;;;;5071708;28;20048;-78
2024/03/05 01:27:11;;;;;;;1.58;1.30;;;;;;;;;;5052878;28;20426;-78
2024/03/05 01:29:40;;;;;;;3.60;1.35;;;5.20;99.90;;;;;;5071230;28;20481;-78
2024/03/05 01:32:07;;;;;;;1.48;1.10;;;5.10;99.90;;;;;;5070998;28;20521;-78
2024/03/05 01:34:37;;;;;;;2.25;1.48;;;;;;;;;;5070033;28;20016;-78
2024/03/05 01:37:03;;;;;;;1.33;1.13;;;;;;;;;;5071031;28;20036;-78
2024/03/05 01:39:30;;;;;;;2.55;1.45;;;;;;;;;;5070317;28;20027;-78
2024/03/05 01:41:56;;;;;;;2.97;1.05;;;5.00;99.60;;;;;;5070208;28;20033;-77
2024/03/05 01:44:22;;;;;;;2.63;1.10;;;;;;;;;;5052071;28;20111;-78
2024/03/05 01:46:49;;;;;;;1.30;1.15;;;5.10;99.60;;;;;;5041322;28;20036;-78
2024/03/05 01:49:15;;;;;;;1.70;1.30;;;5.20;99.30;;;;;;5069968;28;20509;-78
2024/03/05 01:51:45;;;;;;;1.23;1.13;;;5.20;99.00;;;;;;5070047;28;20074;-78
2024/03/05 01:54:14;;;;;;;1.20;1.10;;;5.20;98.90;;;;;;5069868;28;20262;-78
2024/03/05 01:56:42;;;;;;;2.10;1.48;;;5.10;98.80;;;;;;5069872;28;20025;-78
2024/03/05 01:59:08;;;;;;;2.15;1.65;;;;;;;;;;5057978;28;20401;-78
2024/03/05 02:01:35;;;;;;;1.80;1.10;;;4.90;99.30;;;;;;5059876;28;20460;-78
2024/03/05 02:04:01;;;;;;;1.73;1.35;;;;;;;;;;5069048;28;20035;-78
2024/03/05 02:06:31;;;;;;;5.43;1.27;;;;;;;;;;5052158;28;20025;-77
2024/03/05 02:08:56;;;;;;;1.95;1.05;;;;;;;;;;5059299;28;20421;-78
2024/03/05 02:11:23;;;;;;;2.40;1.88;;;;;;;;;;5054886;28;20089;-78
2024/03/05 02:13:49;;;;;;;11.38;1.42;;;;;;;;;;5063151;28;20040;-78
2024/03/05 02:16:15;;;;;;;1.70;1.05;;;;;;;;;;5074718;28;20085;-78
2024/03/05 02:18:41;;;;;;;3.23;1.53;;;;;;;;;;5069727;28;20024;-78
2024/03/05 02:21:07;;;;;;;1.70;0.82;;;;;;;;;;5069437;28;20293;-78
2024/03/05 02:23:33;;;;;;;1.48;1.35;;;;;;;;;;5053533;28;20029;-77
2024/03/05 02:26:02;;;;;;;2.83;1.40;;;4.10;99.90;;;;;;5047349;28;20039;-78
2024/03/05 02:28:28;;;;;;;2.13;1.35;;;;;;;;;;5059621;28;20404;-78
2024/03/05 02:30:54;;;;;;;1.40;1.00;;;;;;;;;;5070770;28;20025;-78
2024/03/05 02:33:21;;;;;;;1.80;0.70;;;;;;;;;;5073067;28;20029;-77
2024/03/05 02:35:48;;;;;;;1.15;1.05;;;;;;;;;;5061277;28;20465;-78
2024/03/05 02:38:14;;;;;;;2.97;0.65;;;;;;;;;;5069086;28;20078;-78
2024/03/05 02:40:40;;;;;;;1.13;1.00;;;;;;;;;;5053235;28;20044;-78
2024/03/05 02:43:06;;;;;;;4.28;1.23;;;;;;;;;;5068564;28;20025;-78
2024/03/05 02:45:32;;;;;;;0.88;0.88;;;4.00;99.90;;;;;;5069015;28;20032;-78
2024/03/05 02:48:06;;;;;;;1.08;0.98;;;4.10;99.90;;;;;;5068651;28;20037;-78
2024/03/05 02:50:34;;;;;;;0.70;0.70;;;;;;;;;;5068823;28;20032;-78
2024/03/05 02:52:59;;;;;;;1.38;0.90;;;4.10;99.90;;;;;;5065692;28;20574;-78
2024/03/05 02:55:27;;;;;;;2.05;0.90;;;;;;;;;;5065443;28;20024;-77
2024/03/05 02:57:53;;;;;;;;;;;4.00;99.90;;;;;;5070670;28;20111;-78
2024/03/05 03:00:24;;;;;;;0.75;0.75;;;3.90;99.90;;;;;;5067309;28;20053;-78
2024/03/05 03:02:50;;;;;;;1.85;1.05;;;;;;;;;;5067105;28;20540;-78
2024/03/05 03:05:21;;;;;;;1.05;0.77;;;3.90;99.90;;;;;;5063678;28;20052;-78
2024/03/05 03:07:47;;;;;;;0.93;0.80;;;4.00;99.90;;;;;;5066747;28;20078;-78
2024/03/05 03:10:14;;;;;;;1.25;1.10;;;;;;;;;;5068270;28;20519;-78
2024/03/05 03:12:41;;;;;;;0.57;0.52;;;;;;;;;;5069179;28;20029;-78
2024/03/05 03:15:07;;;;;;;1.15;1.00;;;3.90;99.90;;;;;;5056094;28;20064;-78
2024/03/05 03:17:40;;;;;;;1.20;0.77;;;3.20;99.90;;;;;;5057421;28;20036;-78
2024/03/05 03:20:07;;;;;;;0.65;0.50;;;;;;;;;;5050041;28;20055;-78
2024/03/05 03:22:33;;;;;;;2.53;1.00;;;;;;;;;;5068611;28;20043;-78
2024/03/05 03:24:59;;;;;;;1.10;1.10;;;;;;;;;;5050604;28;20056;-78
2024/03/05 03:27:25;;;;;;;1.58;1.00;;;;;;;;;;5068366;28;20077;-78
2024/03/05 03:29:52;;;;;;;0.60;0.60;;;;;;;;;;5068261;28;20474;-78
2024/03/05 03:32:21;;;;;;;0.50;0.50;;;;;;;;;;5067404;28;20100;-77
2024/03/05 03:34:47;;;;;;;3.75;0.80;;;;;;;;;;5068412;28;20036;-77
2024/03/05 03:37:13;;;;;;;1.27;0.82;;;3.40;99.90;;;;;;5067583;28;20417;-78
2024/03/05 03:39:46;;;;;;;0.95;0.85;;;3.20;99.90;;;;;;5069689;28;20115;-78
2024/03/05 03:42:12;;;;;;;0.85;0.70;;;;;;;;;;5071595;28;20029;-77
2024/03/05 03:44:39;;;;;;;0.75;0.75;;;;;;;;;;5072072;28;20020;-77
2024/03/05 03:47:05;;;;;;;0.80;0.67;;;;;;;;;;5053467;28;20489;-77
2024/03/05 03:49:31;;;;;;;1.10;0.98;;;2.80;99.90;;;;;;5072438;28;20016;-77
2024/03/05 03:51:57;;;;;;;1.95;0.60;;;;;;;;;;5071688;28;20025;-78
2024/03/05 03:54:24;;;;;;;0.77;0.77;;;;;;;;;;5072260;28;20039;-78
2024/03/05 03:56:50;;;;;;;0.47;0.47;;;;;;;;;;5053836;28;20040;-77
2024/03/05 03:59:17;;;;;;;0.65;0.65;;;;;;;;;;5072490;28;20040;-78
2024/03/05 04:01:46;;;;;;;1.30;0.90;;;2.50;99.90;;;;;;5071074;28;20501;-78
2024/03/05 04:04:12;;;;;;;1.45;0.70;;;;;;;;;;5071885;28;20074;-77
2024/03/05 04:06:39;;;;;;;0.70;0.70;;;2.40;99.90;;;;;;5071429;28;20522;-78
2024/03/05 04:09:08;;;;;;;1.20;0.93;;;;;;;;;;5072416;28;20025;-77
2024/03/05 04:11:34;;;;;;;0.57;0.57;;;2.30;99.90;;;;;;5071110;28;20068;-77
2024/03/05 04:14:00;;;;;;;0.60;0.60;;;;;;;;;;5070734;28;20071;-77
2024/03/05 04:16:26;;;;;;;0.80;0.80;;;;;;;;;;5072167;28;20027;-77
2024/03/05 04:18:53;;;;;;;0.90;0.90;;;;;;;;;;5071406;28;20435;-78
2024/03/05 04:21:19;;;;;;;2.47;0.90;;;;;;;;;;5053370;28;20109;-77
2024/03/05 04:23:46;;;;;;;0.60;0.60;;;;;;;;;;5064731;28;20025;-78
2024/03/05 04:26:23;;;;;;;1.50;1.15;;;;;;;;;;5066136;28;20028;-78
2024/03/05 04:28:49;;;;;;;5.50;2.38;;;;;;;;;;5071866;28;20107;-77
2024/03/05 04:31:19;;;;;;;0.77;0.77;;;1.70;99.90;;;;;;5063385;28;20033;-78
2024/03/05 04:33:47;;;;;;;1.27;1.17;;;;;;;;;;5070643;28;20032;-78
2024/03/05 04:36:14;;;;;;;1.08;0.98;;;;;;;;;;5071336;28;20034;-77
2024/03/05 04:38:44;;;;;;;1.55;1.13;;;1.80;99.90;;;;;;5071517;28;20108;-77
2024/03/05 04:41:10;;;;;;;3.20;2.40;;;1.70;99.90;;;;;;5071124;28;20049;-78
2024/03/05 04:43:38;;;;;;;3.00;1.92;;;;;;;;;;5066831;28;20031;-77
2024/03/05 04:46:04;;;;;;;5.03;2.42;;;;;;;;;;5071421;28;20036;-78
2024/03/05 04:48:30;;;;;;;2.58;2.05;;;1.70;99.90;;;;;;5084535;28;20024;-77
2024/03/05 04:50:56;;;;;;;2.85;2.20;;;;;;;;;;5062985;28;20492;-78
2024/03/05 04:53:22;;;;;;;4.70;2.60;;;;;;;;;;5074904;28;20111;-78
2024/03/05 04:55:48;;;;;;;4.45;2.78;;;1.70;99.90;;;;;;5083979;28;20485;-77
2024/03/05 04:58:14;;;;;;;2.33;2.08;;;;;;;;;;5065441;28;20040;-78
2024/03/05 05:00:41;;;;;;;2.70;2.05;;;;;;;;;;5051340;28;20107;-78
2024/03/05 05:03:06;;;;;;;2.90;1.83;;;1.60;99.90;;;;;;5062865;28;20082;-78
2024/03/05 05:05:32;;;;;;;3.33;2.08;;;;;;;;;;5073134;28;20016;-78
2024/03/05 05:08:03;;;;;;;3.72;2.75;;;;;;;;;;5070570;28;20033;-78
2024/03/05 05:10:31;;;;;;;3.05;2.60;;;;;;;;;;5078369;28;20093;-78
2024/03/05 05:12:58;;;;;;;0.60;0.60;;;1.40;99.90;;;;;;5077524;28;20052;-78
2024/03/05 05:15:24;;;;;;;0.70;0.55;;;1.40;99.90;;;;;;5033486;28;20108;-77
2024/03/05 05:17:50;;;;;;;1.60;1.00;;;;;;;;;;5054505;28;20036;-78
2024/03/05 05:20:18;;;;;;;0.50;0.50;;;;;;;;;;5050167;28;20869;-78
2024/03/05 05:22:44;;;;;;;1.45;0.95;;;;;;;;;;5050695;28;20087;-78
2024/03/05 05:25:14;;;;;;;3.35;1.50;;;1.30;99.90;;;;;;5050153;28;20048;-78
2024/03/05 05:27:40;;;;;;;4.72;1.17;;;1.20;99.90;;;;;;5050282;28;20017;-78
2024/03/05 05:30:06;;;;;;;1.05;0.82;;;;;;;;;;5049933;28;20037;-78
2024/03/05 05:32:34;;;;;;;7.32;2.85;;;1.20;99.90;;;;;;5049431;28;20025;-78
2024/03/05 05:35:03;;;;;;;4.70;1.83;;;1.10;99.90;;;;;;5049967;28;20033;-78
2024/03/05 05:37:29;;;;;;;1.85;1.40;;;;;;;;;;5049370;28;20025;-78
2024/03/05 05:39:55;;;;;;;5.07;1.23;;;;;;;;;;5049728;28;20394;-78
2024/03/05 05:42:23;;;;;;;1.33;1.05;;;;;;;;;;5031755;28;20056;-78
2024/03/05 05:44:49;;;;;;;1.27;1.10;;;;;;;;;;5048981;28;20037;-78
2024/03/05 05:47:15;;;;;;;1.33;1.17;;;;;;;;;;5031440;28;20025;-78
2024/03/05 05:49:42;;;;;;;1.52;1.42;;;;;;;;;;5049857;28;20026;-78
2024/03/05 05:52:08;;;;;;;8.00;1.17;;;1.10;99.90;;;;;;5049663;28;20021;-78
2024/03/05 05:54:42;;;;;;;1.25;1.08;;;;;;;;;;5028432;28;20034;-78
2024/03/05 05:57:08;;;;;;;0.75;0.75;;;;;;;;;;5048242;28;20033;-78
2024/03/05 05:59:34;;;;;;;2.50;1.42;;;1.40;99.90;;;;;;5049549;28;20517;-78
2024/03/05 06:02:00;;;;;;;2.90;2.45;;;1.60;99.90;;;;;;5049147;28;20112;-78
2024/03/05 06:04:25;;;;;;;1.95;1.52;;;;;;;;;;5048934;28;20187;-78
2024/03/05 06:06:52;;;;;;;6.78;3.45;;;;;;;;;;5049520;28;20024;-78
2024/03/05 06:09:27;;;;;;;3.00;1.77;;;1.20;99.90;;;;;;5048447;28;20029;-77
2024/03/05 06:11:53;;;;;;;11.35;4.13;;;1.60;99.90;;;;;;5048787;28;20048;-78
2024/03/05 06:14:19;;;;;;;7.35;3.50;;;;;;;;;;5055579;28;20457;-78
2024/03/05 06:16:45;;;;;;;6.43;3.97;;;1.60;99.90;;;;;;5069209;28;20103;-77
2024/03/05 06:19:11;;;;;;;12.85;8.10;;;;;;;;;;5071080;28;20627;-76
2024/03/05 06:21:37;;;;;;;8.98;4.75;;;;;;;;;;5070460;28;20032;-76
2024/03/05 06:24:04;;;;;;;4.78;2.17;;;1.80;99.90;;;;;;5068000;28;20044;-77
2024/03/05 06:26:34;;;;;;;5.43;3.63;;;1.90;99.90;;;;;;5067584;28;20036;-80
2024/03/05 06:29:06;;;;;;;5.75;4.00;;;;;;;;;;5064365;28;20043;-78
2024/03/05 06:31:32;;;;;;;4.53;2.83;;;;;;;;;;5060440;28;20028;-79
2024/03/05 06:33:58;;;;;;;9.10;5.03;;;;;;;;;;5066038;28;20021;-80
2024/03/05 06:36:24;;;;;;;2.83;2.55;;;;;;;;;;5067169;28;20036;-83
2024/03/05 06:38:50;;;;;;;4.32;2.75;;;;;;;;;;5050466;28;20024;-82
2024/03/05 06:41:16;;;;;;;2.95;2.03;;;;;;;;;;5070986;28;20158;-79
2024/03/05 06:43:42;;;;;;;3.58;2.10;;;;;;;;;;5068308;28;20142;-82
2024/03/05 06:46:09;;;;;;;1.73;1.52;;;;;;;;;;5069554;28;20029;-79
2024/03/05 06:48:37;;;;;;;2.58;2.15;;;;;;;;;;5069643;28;20039;-82
2024/03/05 06:51:16;;;;;;;6.38;3.03;;;4.10;99.90;;;;;;5078403;28;20055;-75
2024/03/05 06:56:39;;;;;;;5.85;3.28;;;;;;;;;;5070060;28;20043;-76
2024/03/05 06:59:05;;;;;;;12.45;5.28;;;;;;;;;;5068230;28;20028;-81
2024/03/05 07:01:32;;;;;;;12.13;5.53;;;;;;;;;;5068031;28;20101;-81
2024/03/05 07:03:58;;;;;;;12.60;5.45;;;5.00;98.70;;;;;;5068106;28;20032;-81
2024/03/05 07:06:24;;;;;;;14.70;5.20;;;;;;;;;;5073118;28;20508;-80
2024/03/05 07:08:54;;;;;;;17.35;7.93;;;;;;;;;;5070414;28;20024;-80
2024/03/05 07:11:20;;;;;;;43.47;12.48;;;13.40;89.90;;;;;;5069166;28;20021;-80
2024/03/05 07:13:47;;;;;;;23.08;10.30;;;17.10;67.70;;;;;;5059260;28;20118;-77
2024/03/05 07:16:16;;;;;;;11.80;5.13;;;20.20;64.70;;;;;;5047159;28;20404;-81
2024/03/05 07:18:53;;;;;;;5.30;3.92;;;22.20;52.90;;;;;;5047472;28;20052;-78
2024/03/05 07:21:21;;;;;;;6.60;3.75;;;22.30;49.40;;;;;;5022299;28;20033;-75
2024/03/05 07:23:47;;;;;;;4.57;2.85;;;;;;;;;;5039184;28;20074;-76
2024/03/05 07:26:14;;;;;;;5.13;2.83;;;;;;;;;;5047582;28;20576;-78
2024/03/05 07:28:40;;;;;;;;;;;25.80;45.90;;;;;;5047637;28;20098;-82
2024/03/05 07:31:06;;;;;;;6.82;4.22;;;;;;;;;;5047095;28;19912;-80
2024/03/05 07:33:33;;;;;;;8.15;3.28;;;;;;;;;;5047522;28;20024;-79
2024/03/05 07:35:58;;;;;;;6.32;4.00;;;;;;;;;;5026856;28;20119;-79
2024/03/05 07:38:25;;;;;;;8.18;4.55;;;;;;;;;;5044316;28;20052;-80
2024/03/05 07:40:51;;;;;;;5.88;3.78;;;;;;;;;;5047201;28;20060;-77
2024/03/05 07:43:17;;;;;;;9.55;3.08;;;;;;;;;;5047158;28;20603;-79
2024/03/05 07:45:43;;;;;;;4.85;3.60;;;;;;;;;;5046798;28;20036;-76
2024/03/05 07:48:12;;;;;;;4.95;3.00;;;;;;;;;;5047479;28;20021;-82
2024/03/05 07:50:38;;;;;;;5.13;2.83;;;15.90;51.70;;;;;;5028892;28;20117;-83
2024/03/05 07:53:05;;;;;;;6.15;3.70;;;;;;;;;;5046815;28;20028;-77
2024/03/05 07:55:30;;;;;;;7.70;3.63;;;;;;;;;;5047143;28;20049;-82
2024/03/05 07:57:56;;;;;;;6.10;3.58;;;;;;;;;;5047467;28;20094;-78
2024/03/05 08:00:24;;;;;;;5.10;3.17;;;15.20;62.70;;;;;;5047132;28;20032;-82
2024/03/05 08:02:53;;;;;;;5.38;2.75;;;14.70;55.00;;;;;;5047334;28;20102;-82
2024/03/05 08:05:21;;;;;;;4.75;3.22;;;;;;;;;;5047475;28;20057;-82
2024/03/05 08:07:51;;;;;;;4.50;2.65;;;14.70;54.50;;;;;;5046964;28;20643;-79
2024/03/05 08:10:17;;;;;;;5.35;3.28;;;;;;;;;;5025742;28;20041;-79
2024/03/05 08:12:44;;;;;;;7.70;3.20;;;14.60;54.50;;;;;;5044417;28;20029;-79
2024/03/05 08:15:12;;;;;;;3.55;2.97;;;14.70;55.10;;;;;;5057156;28;20232;-79
2024/03/05 08:17:39;;;;;;;5.72;2.38;;;15.50;54.90;;;;;;5050324;28;20021;-75
2024/03/05 08:20:09;;;;;;;6.00;3.70;;;15.50;54.50;;;;;;5046628;28;20124;-79
2024/03/05 08:22:35;;;;;;;3.22;2.30;;;;;;;;;;5046981;28;20497;-78
2024/03/05 08:25:10;;;;;;;4.18;2.70;;;17.10;51.30;;;;;;5047013;28;20136;-78
2024/03/05 08:27:39;;;;;;;3.92;1.83;;;15.90;51.90;;;;;;5046274;28;20090;-78
2024/03/05 08:30:07;;;;;;;4.00;2.40;;;14.90;67.90;;;;;;5032501;28;20405;-78
2024/03/05 08:32:34;;;;;;;3.97;2.47;;;;;;;;;;5050080;28;20397;-78
2024/03/05 08:35:00;;;;;;;2.25;1.60;;;;;;;;;;5049025;28;20504;-80
2024/03/05 08:37:26;;;;;;;3.25;2.50;;;;;;;;;;5052447;28;20025;-83
2024/03/05 08:39:52;;;;;;;3.17;2.03;;;;;;;;;;5050298;28;20128;-79
2024/03/05 08:42:18;;;;;;;2.05;1.73;;;;;;;;;;5028679;28;20112;-79
2024/03/05 08:44:44;;;;;;;2.60;1.80;;;;;;;;;;5047027;28;20036;-78
2024/03/05 08:47:12;;;;;;;1.85;1.42;;;;;;;;;;5050371;28;20024;-78
2024/03/05 08:49:38;;;;;;;6.90;1.65;;;;;;;;;;5049748;28;20651;-81
2024/03/05 08:52:04;;;;;;;3.33;1.75;;;;;;;;;;5046832;28;20140;-82
2024/03/05 08:54:34;;;;;;;3.67;1.17;;;;;;;;;;5050192;28;20378;-79
2024/03/05 08:57:00;;;;;;;2.85;2.65;;;;;;;;;;5049622;28;20033;-80
2024/03/05 08:59:27;;;;;;;1.88;1.48;;;;;;;;;;5049940;28;20040;-76
2024/03/05 09:01:53;;;;;;;7.03;1.30;;;;;;;;;;5050716;28;20489;-78
2024/03/05 09:04:25;;;;;;;1.45;1.00;;;11.30;60.20;;;;;;5049882;28;20051;-84
2024/03/05 09:06:53;;;;;;;1.67;1.52;;;;;;;;;;5029768;28;20376;-80
2024/03/05 09:09:19;;;;;;;1.83;0.93;;;;;;;;;;5049797;28;20025;-81
2024/03/05 09:11:46;;;;;;;3.15;1.20;;;11.90;59.90;;;;;;5048984;28;20453;-76
2024/03/05 09:14:12;;;;;;;2.05;0.95;;;;;;;;;;5049979;28;20160;-76
2024/03/05 09:16:38;;;;;;;2.03;1.85;;;;;;;;;;5053257;28;20691;-77
2024/03/05 09:19:05;;;;;;;3.38;1.35;;;21.50;48.20;;;;;;5033485;28;20116;-78
2024/03/05 09:21:35;;;;;;;2.60;1.00;;;;;;;;;;5050185;28;20035;-78
2024/03/05 09:24:01;;;;;;;4.78;1.05;;;;;;;;;;5050330;28;20402;-78
2024/03/05 09:26:29;;;;;;;3.45;0.98;;;;;;;;;;5049182;28;20025;-77
2024/03/05 09:28:55;;;;;;;3.67;0.85;;;;;;;;;;5050006;28;20116;-78
2024/03/05 09:31:22;;;;;;;1.45;0.85;;;;;;;;;;5049919;28;20098;-75
2024/03/05 09:33:47;;;;;;;4.93;1.02;;;;;;;;;;5049279;28;20071;-75
2024/03/05 09:36:13;;;;;;;1.23;0.68;;;14.10;65.00;;;;;;5043081;28;20053;-76
2024/03/05 09:38:39;;;;;;;6.35;0.90;;;;;;;;;;5038257;28;20017;-80
2024/03/05 09:41:05;;;;;;;1.95;1.10;;;;;;;;;;5048929;28;20073;-79
2024/03/05 09:43:33;;;;;;;1.13;0.88;;;;;;;;;;5048571;28;20028;-81
2024/03/05 09:46:04;;;;;;;3.60;1.42;;;11.10;58.00;;;;;;5049351;28;20051;-77
2024/03/05 09:48:30;;;;;;;1.10;1.00;;;;;;;;;;5048414;28;20053;-79
2024/03/05 09:50:56;;;;;;;0.70;0.70;;;;;;;;;;5029731;28;20080;-77
2024/03/05 09:53:22;;;;;;;3.50;0.70;;;;;;;;;;5049168;28;20039;-77
2024/03/05 09:55:52;;;;;;;5.90;1.90;;;9.90;60.70;;;;;;5048054;28;20030;-79
2024/03/05 09:58:31;;;;;;;1.42;1.17;;;9.80;61.00;;;;;;5048299;28;20094;-76
2024/03/05 10:00:59;;;;;;;1.75;0.88;;;9.60;61.80;;;;;;5042358;28;20760;-76
2024/03/05 10:03:25;;;;;;;0.90;0.90;;;;;;;;;;5048934;28;20017;-76
2024/03/05 10:05:52;;;;;;;3.40;0.80;;;;;;;;;;5047798;28;20021;-76
2024/03/05 10:08:18;;;;;;;1.63;1.00;;;;;;;;;;5047321;28;20410;-76
2024/03/05 10:10:46;;;;;;;0.82;0.82;;;9.20;62.70;;;;;;5047380;28;20491;-77
2024/03/05 10:13:12;;;;;;;1.20;1.00;;;;;;;;;;5047764;28;20095;-76
2024/03/05 10:15:42;;;;;;;1.33;1.23;;;;;;;;;;5057503;28;20044;-76
2024/03/05 10:18:08;;;;;;;1.50;0.95;;;;;;;;;;5050766;28;20029;-76
2024/03/05 10:20:36;;;;;;;2.42;0.80;;;8.90;64.00;;;;;;5047895;28;20547;-76
2024/03/05 10:23:11;;;;;;;2.53;0.77;;;10.10;65.00;;;;;;5054216;28;20044;-76
2024/03/05 10:25:39;;;;;;;1.02;0.85;;;;;;;;;;5047428;28;20387;-76
2024/03/05 10:28:08;;;;;;;0.93;0.60;;;;;;;;;;5047544;28;20025;-76
2024/03/05 10:30:37;;;;;;;1.60;1.10;;;;;;;;;;5048043;28;20173;-76
2024/03/05 10:33:04;;;;;;;0.70;0.70;;;9.90;70.10;;;;;;5047084;28;20032;-76
2024/03/05 10:35:33;;;;;;;6.80;1.13;;;10.00;64.20;;;;;;5057478;28;20020;-77
2024/03/05 10:37:59;;;;;;;1.20;0.90;;;;;;;;;;5036387;28;20547;-76
2024/03/05 10:40:32;;;;;;;3.58;0.93;;;10.20;63.30;;;;;;5052562;28;20041;-76
2024/03/05 10:43:04;;;;;;;7.15;1.30;;;10.40;77.40;;;;;;5047777;28;20401;-76
2024/03/05 10:45:32;;;;;;;2.10;1.00;;;10.50;63.00;;;;;;5046548;28;20500;-76
2024/03/05 10:48:00;;;;;;;3.25;1.38;;;10.60;62.70;;;;;;5047055;28;20040;-76
2024/03/05 10:50:27;;;;;;;6.90;1.30;;;10.70;62.30;;;;;;5045780;28;20501;-76
2024/03/05 10:52:56;;;;;;;5.88;2.55;;;10.80;62.60;;;;;;5047525;28;20104;-76
2024/03/05 10:55:23;;;;;;;7.30;2.80;;;10.70;62.90;;;;;;5046692;28;20433;-76
2024/03/05 11:00:35;;;;;;;8.40;5.18;;;10.90;62.30;;;;;;5046618;28;20044;-76
2024/03/05 11:03:27;;;;;;;2.92;2.20;;;11.10;84.30;;;;;;5046864;28;20025;-76
2024/03/05 11:05:53;;;;;;;4.38;3.28;;;11.30;60.70;;;;;;5036944;28;20192;-76
2024/03/05 11:08:24;;;;;;;1.83;1.45;;;11.00;57.40;;;;;;5047209;28;20025;-76
2024/03/05 11:10:58;;;;;;;2.67;2.45;;;11.80;57.00;;;;;;5046521;28;20051;-76
2024/03/05 11:13:26;;;;;;;1.00;1.00;;;11.20;55.40;;;;;;5045160;28;20041;-76
2024/03/05 11:15:52;;;;;;;0.90;0.90;;;;;;;;;;5047689;28;20057;-76
2024/03/05 11:18:28;;;;;;;0.85;0.85;;;11.60;70.20;;;;;;5048219;28;20371;-76
2024/03/05 11:20:54;;;;;;;0.80;0.80;;;;;;;;;;5046500;28;20127;-76
2024/03/05 11:23:20;;;;;;;1.40;1.00;;;;;;;;;;5041323;28;20024;-76
2024/03/05 11:25:47;;;;;;;1.30;0.50;;;12.40;54.50;;;;;;5046172;28;20032;-76
2024/03/05 11:28:21;;;;;;;0.60;0.60;;;12.50;53.30;;;;;;5033875;28;20401;-76
2024/03/05 11:30:47;;;;;;;1.65;0.82;;;;;;;;;;5045837;28;20025;-76
2024/03/05 11:33:18;;;;;;;0.50;0.50;;;12.30;53.30;;;;;;5046982;28;20048;-76
2024/03/05 11:35:45;;;;;;;0.73;0.65;;;;;;;;;;5046166;28;20025;-76
2024/03/05 11:38:13;;;;;;;0.73;0.57;;;12.30;73.60;;;;;;5047513;28;20021;-76
2024/03/05 11:40:40;;;;;;;1.40;0.82;;;12.00;54.90;;;;;;5046052;28;20049;-75
2024/03/05 11:43:06;;;;;;;1.48;0.50;;;;;;;;;;5045000;28;20115;-76
2024/03/05 11:45:51;;;;;;;0.77;0.52;;;;;;;;;;5045746;28;20485;-76
2024/03/05 11:48:19;;;;;;;0.60;0.60;;;12.50;54.20;;;;;;5046546;28;20037;-76
2024/03/05 11:50:46;;;;;;;0.57;0.47;;;12.20;53.50;;;;;;5028274;28;20024;-76
2024/03/05 11:53:12;;;;;;;0.60;0.60;;;12.00;53.70;;;;;;5046450;28;20025;-76
2024/03/05 11:55:38;;;;;;;0.68;0.68;;;;;;;;;;5045074;28;20115;-76
2024/03/05 11:58:09;;;;;;;1.70;0.75;;;;;;;;;;5038911;28;20037;-76
2024/03/05 12:00:35;;;;;;;1.35;0.88;;;;;;;;;;5047540;28;20504;-76
2024/03/05 12:03:03;;;;;;;0.50;0.50;;;11.70;55.20;;;;;;5050384;28;20025;-76
2024/03/05 12:05:29;;;;;;;;;;;11.60;55.50;;;;;;5032059;28;20597;-76
2024/03/05 12:08:06;;;;;;;1.20;0.60;;;11.20;67.20;;;;;;5048897;28;19916;-76
2024/03/05 12:10:35;;;;;;;0.47;0.47;;;11.20;56.30;;;;;;5043119;28;20032;-75
2024/03/05 12:13:02;;;;;;;0.50;0.50;;;11.10;56.30;;;;;;5046556;28;20036;-76
2024/03/05 12:15:32;;;;;;;6.45;2.72;;;11.20;59.70;;;;;;5069292;28;20036;-76
2024/03/05 12:17:58;;;;;;;3.92;0.98;;;;;;;;;;5069723;28;20040;-76
2024/03/05 12:20:24;;;;;;;1.10;1.00;;;;;;;;;;5065219;28;20048;-76
2024/03/05 12:22:54;;;;;;;1.75;1.40;;;11.00;57.10;;;;;;5080099;28;20020;-76
2024/03/05 12:25:21;;;;;;;0.98;0.90;;;8.90;56.10;;;;;;5079887;28;20036;-76
2024/03/05 12:27:48;;;;;;;0.68;0.68;;;;;;;;;;5072475;28;20485;-76
2024/03/05 12:30:17;;;;;;;1.17;1.08;;;11.00;57.40;;;;;;5066420;28;20032;-76
2024/03/05 12:32:47;;;;;;;1.27;0.68;;;11.00;71.10;;;;;;5079844;28;20024;-76
2024/03/05 12:35:14;;;;;;;1.27;0.80;;;11.00;57.70;;;;;;5070603;28;20397;-76
2024/03/05 12:37:40;;;;;;;0.88;0.88;;;;;;;;;;5069456;28;20055;-76
2024/03/05 12:40:09;;;;;;;1.27;0.90;;;;;;;;;;5066752;28;20043;-76
2024/03/05 12:42:35;;;;;;;0.88;0.70;;;;;;;;;;5072968;28;20024;-76
2024/03/05 12:45:06;;;;;;;0.88;0.80;;;10.50;58.90;;;;;;5089622;28;20051;-76
2024/03/05 12:47:32;;;;;;;0.70;0.70;;;;;;;;;;5070062;28;20044;-76
2024/03/05 12:50:00;;;;;;;0.63;0.63;;;11.00;58.70;;;;;;5069586;28;20027;-77
2024/03/05 12:52:26;;;;;;;0.80;0.80;;;;;;;;;;5080995;28;20028;-76
2024/03/05 12:55:00;;;;;;;3.55;1.05;;;11.90;62.60;;;;;;5069723;28;20427;-76
2024/03/05 12:57:28;;;;;;;0.70;0.70;;;12.70;57.40;;;;;;5064134;28;20028;-76
2024/03/05 12:59:54;;;;;;;0.65;0.65;;;;;;;;;;5088839;28;20608;-76
2024/03/05 13:02:20;;;;;;;0.70;0.60;;;;;;;;;;5067788;28;20035;-76
2024/03/05 13:04:46;;;;;;;0.60;0.60;;;;;;;;;;5062727;28;20044;-76
2024/03/05 13:07:12;;;;;;;2.05;0.77;;;;;;;;;;5047948;28;20518;-76
2024/03/05 13:09:38;;;;;;;0.70;0.70;;;;;;;;;;5063620;28;20111;-76
2024/03/05 13:12:07;;;;;;;4.13;1.23;;;;;;;;;;5068391;28;20333;-76
2024/03/05 13:14:32;;;;;;;1.15;1.05;;;13.00;69.60;;;;;;5055315;28;20060;-76
2024/03/05 13:16:59;;;;;;;1.35;0.90;;;12.90;72.50;;;;;;5048350;28;20032;-76
2024/03/05 13:19:25;;;;;;;0.63;0.63;;;;;;;;;;5049450;28;20029;-76
2024/03/05 13:21:51;;;;;;;0.93;0.60;;;;;;;;;;5048996;28;20532;-76
2024/03/05 13:24:17;;;;;;;3.25;0.88;;;;;;;;;;5049094;28;20032;-76
2024/03/05 13:26:48;;;;;;;1.77;0.70;;;12.50;57.10;;;;;;5048910;28;20028;-76
2024/03/05 13:29:14;;;;;;;0.60;0.60;;;12.40;57.10;;;;;;5049379;28;20272;-76
2024/03/05 13:31:43;;;;;;;3.00;0.60;;;12.30;60.00;;;;;;5048434;28;20033;-76
2024/03/05 13:34:09;;;;;;;0.70;0.70;;;;;;;;;;5048696;28;20017;-76
2024/03/05 13:36:38;;;;;;;2.78;1.35;;;12.20;57.80;;;;;;5048661;28;20060;-76
2024/03/05 13:39:08;;;;;;;1.20;1.10;;;12.10;57.70;;;;;;5048511;28;20029;-76
2024/03/05 13:41:38;;;;;;;1.13;0.95;;;12.10;57.80;;;;;;5048826;28;20040;-76
2024/03/05 13:44:08;;;;;;;1.20;1.00;;;12.00;57.90;;;;;;5047986;28;20512;-76
2024/03/05 13:46:37;;;;;;;0.77;0.70;;;12.10;58.00;;;;;;5048550;28;20041;-76
2024/03/05 13:49:05;;;;;;;0.50;0.50;;;12.30;57.90;;;;;;5049111;28;20029;-76
2024/03/05 13:51:31;;;;;;;1.08;1.08;;;12.60;79.80;;;;;;5048237;28;20049;-76
2024/03/05 13:54:04;;;;;;;2.70;0.75;;;;;;;;;;5048532;28;20390;-77
2024/03/05 13:56:31;;;;;;;0.90;0.90;;;12.90;68.10;;;;;;5048562;28;20287;-76
2024/03/05 13:59:06;;;;;;;0.60;0.60;;;13.00;56.20;;;;;;5047616;28;20028;-76
2024/03/05 14:01:32;;;;;;;0.73;0.70;;;;;;;;;;5048030;28;20218;-76
2024/03/05 14:03:58;;;;;;;2.60;0.77;;;;;;;;;;5048201;28;20572;-76